createdAt,value
2023-11-30T00:01:11.227Z,2.50
2023-11-30T00:03:57.016Z,2.50
2023-11-30T00:06:43.595Z,2.88
2023-11-30T00:09:29.171Z,2.67
2023-11-30T00:12:15.031Z,2.22
2023-11-30T00:15:00.577Z,3.25
2023-11-30T00:17:46.204Z,4.85
2023-11-30T00:20:32.187Z,4.60
2023-11-30T00:23:17.497Z,4.43
2023-11-30T00:26:03.199Z,3.65
2023-11-30T00:28:51.313Z,3.75
2023-11-30T00:31:36.916Z,3.53
2023-11-30T00:34:22.891Z,3.85
2023-11-30T00:37:08.632Z,4.57
2023-11-30T00:39:54.350Z,3.60
2023-11-30T00:42:40.147Z,2.88
2023-11-30T00:45:26.004Z,3.22
2023-11-30T00:48:14.417Z,2.15
2023-11-30T00:51:00.112Z,2.25
2023-11-30T00:53:45.748Z,2.53
2023-11-30T00:56:31.434Z,2.53
2023-11-30T00:59:16.614Z,2.55
2023-11-30T01:02:02.334Z,2.40
2023-11-30T01:04:47.977Z,2.22
2023-11-30T01:07:33.764Z,2.60
2023-11-30T01:10:19.079Z,2.95
2023-11-30T01:13:04.866Z,2.08
2023-11-30T01:15:50.511Z,3.08
2023-11-30T01:18:36.859Z,2.90
2023-11-30T01:21:22.437Z,3.80
2023-11-30T01:24:08.073Z,4.50
2023-11-30T01:26:53.719Z,4.03
2023-11-30T01:29:38.835Z,4.32
2023-11-30T01:32:24.230Z,4.70
2023-11-30T01:35:10.038Z,4.35
2023-11-30T01:37:55.565Z,3.35
2023-11-30T01:40:42.485Z,3.63
2023-11-30T01:43:28.911Z,3.15
2023-11-30T01:46:14.976Z,3.92
2023-11-30T01:49:00.986Z,3.75
2023-11-30T01:51:46.418Z,2.60
2023-11-30T01:54:32.037Z,3.03
2023-11-30T01:57:17.627Z,3.10
2023-11-30T02:00:05.538Z,2.33
2023-11-30T02:02:59.036Z,2.83
2023-11-30T02:05:45.425Z,2.33
2023-11-30T02:08:30.837Z,2.70
2023-11-30T02:11:16.540Z,3.55
2023-11-30T02:14:04.398Z,2.88
2023-11-30T02:16:50.131Z,3.13
2023-11-30T02:19:35.606Z,2.70
2023-11-30T02:22:22.030Z,3.33
2023-11-30T02:25:08.751Z,4.07
2023-11-30T02:28:00.427Z,6.28
2023-11-30T02:30:47.795Z,5.75
2023-11-30T02:33:33.551Z,3.95
2023-11-30T02:36:20.365Z,5.63
2023-11-30T02:39:06.391Z,3.58
2023-11-30T02:41:52.642Z,5.10
2023-11-30T02:44:38.487Z,4.20
2023-11-30T02:47:23.841Z,4.15
2023-11-30T02:50:10.131Z,3.70
2023-11-30T02:52:59.844Z,3.05
2023-11-30T02:55:45.164Z,3.30
2023-11-30T02:58:30.797Z,5.00
2023-11-30T03:01:16.653Z,5.85
2023-11-30T03:04:02.121Z,8.30
2023-11-30T03:06:50.718Z,6.53
2023-11-30T03:09:41.939Z,6.13
2023-11-30T03:12:27.720Z,5.68
2023-11-30T03:15:15.031Z,4.85
2023-11-30T03:18:00.810Z,6.97
2023-11-30T03:20:47.194Z,5.75
2023-11-30T03:23:34.483Z,4.78
2023-11-30T03:26:20.170Z,5.03
2023-11-30T03:29:05.595Z,4.75
2023-11-30T03:31:51.369Z,5.38
2023-11-30T03:34:38.917Z,4.75
2023-11-30T03:37:24.686Z,4.45
2023-11-30T03:40:11.444Z,3.60
2023-11-30T03:42:57.055Z,8.10
2023-11-30T03:45:43.039Z,9.77
2023-11-30T03:48:28.871Z,12.07
2023-11-30T03:51:14.172Z,12.70
2023-11-30T03:54:00.065Z,14.02
2023-11-30T03:56:45.372Z,14.05
2023-11-30T03:59:32.791Z,12.15
2023-11-30T04:02:19.044Z,12.98
2023-11-30T04:05:06.682Z,12.82
2023-11-30T04:07:52.074Z,11.07
2023-11-30T04:10:37.656Z,10.73
2023-11-30T04:13:26.891Z,8.07
2023-11-30T04:16:18.182Z,7.38
2023-11-30T04:19:04.070Z,8.65
2023-11-30T04:21:49.450Z,7.47
2023-11-30T04:24:35.536Z,6.90
2023-11-30T04:27:21.951Z,6.18
2023-11-30T04:30:08.548Z,8.10
2023-11-30T04:32:54.941Z,8.52
2023-11-30T04:35:44.103Z,8.18
2023-11-30T04:38:29.801Z,10.45
2023-11-30T04:41:20.292Z,7.95
2023-11-30T04:44:06.479Z,9.48
2023-11-30T04:46:53.372Z,16.67
2023-11-30T04:49:41.636Z,13.77
2023-11-30T04:52:27.287Z,13.05
2023-11-30T04:55:13.331Z,12.38
2023-11-30T04:57:58.773Z,13.00
2023-11-30T05:00:44.248Z,16.73
2023-11-30T05:03:29.987Z,13.75
2023-11-30T05:06:15.733Z,13.07
2023-11-30T05:09:01.684Z,12.32
2023-11-30T05:11:47.403Z,9.50
2023-11-30T05:14:33.045Z,9.35
2023-11-30T05:17:19.688Z,7.82
2023-11-30T05:20:05.756Z,6.68
2023-11-30T05:22:51.552Z,7.15
2023-11-30T05:25:37.042Z,7.95
2023-11-30T05:28:22.675Z,10.88
2023-11-30T05:31:09.005Z,8.35
2023-11-30T05:33:54.551Z,7.00
2023-11-30T05:36:40.033Z,6.55
2023-11-30T05:39:25.932Z,6.22
2023-11-30T05:42:11.674Z,5.93
2023-11-30T05:44:58.052Z,5.97
2023-11-30T05:47:43.583Z,6.03
2023-11-30T05:50:29.580Z,6.97
2023-11-30T05:53:18.103Z,6.13
2023-11-30T05:56:03.761Z,6.55
2023-11-30T05:58:49.783Z,4.97
2023-11-30T06:01:35.478Z,5.20
2023-11-30T06:04:21.443Z,5.53
2023-11-30T06:07:08.165Z,6.18
2023-11-30T06:09:53.771Z,9.18
2023-11-30T06:12:42.792Z,9.60
2023-11-30T06:15:31.205Z,7.55
2023-11-30T06:18:17.194Z,8.05
2023-11-30T06:21:02.851Z,6.70
2023-11-30T06:23:49.020Z,6.50
2023-11-30T06:26:34.470Z,5.70
2023-11-30T06:29:21.185Z,6.40
2023-11-30T06:32:06.677Z,5.43
2023-11-30T06:34:52.379Z,5.85
2023-11-30T06:37:37.757Z,6.20
2023-11-30T06:40:23.172Z,8.57
2023-11-30T06:43:09.580Z,9.32
2023-11-30T06:45:55.254Z,8.23
2023-11-30T06:48:44.732Z,10.82
2023-11-30T06:51:30.136Z,11.60
2023-11-30T06:54:23.247Z,14.25
2023-11-30T06:57:11.896Z,13.48
2023-11-30T06:59:57.531Z,14.18
2023-11-30T07:02:44.160Z,13.68
2023-11-30T07:05:32.018Z,11.23
2023-11-30T07:08:17.553Z,13.73
2023-11-30T07:11:04.904Z,15.23
2023-11-30T07:13:55.104Z,16.58
2023-11-30T07:16:40.780Z,21.65
2023-11-30T07:19:26.268Z,23.88
2023-11-30T07:22:11.986Z,27.98
2023-11-30T07:24:57.679Z,27.00
2023-11-30T07:27:43.902Z,24.02
2023-11-30T07:30:30.249Z,24.00
2023-11-30T07:33:15.875Z,22.45
2023-11-30T07:36:01.958Z,21.63
2023-11-30T07:38:48.108Z,23.50
2023-11-30T07:41:33.371Z,18.58
2023-11-30T07:44:21.720Z,15.88
2023-11-30T07:47:06.909Z,16.55
2023-11-30T07:49:52.424Z,14.77
2023-11-30T07:52:39.857Z,14.30
2023-11-30T07:55:28.839Z,15.52
2023-11-30T07:58:14.258Z,17.40
2023-11-30T08:01:01.054Z,15.80
2023-11-30T08:03:48.024Z,18.90
2023-11-30T08:06:35.252Z,16.23
2023-11-30T08:09:25.822Z,15.68
2023-11-30T08:12:11.770Z,13.32
2023-11-30T08:14:59.937Z,12.68
2023-11-30T08:17:47.327Z,9.77
2023-11-30T08:20:32.821Z,11.50
2023-11-30T08:23:18.259Z,12.85
2023-11-30T08:26:11.992Z,12.10
2023-11-30T08:29:00.189Z,13.45
2023-11-30T08:31:45.721Z,16.13
2023-11-30T08:34:31.067Z,13.18
2023-11-30T08:37:19.592Z,11.85
2023-11-30T08:40:11.842Z,12.30
2023-11-30T08:42:57.229Z,11.40
2023-11-30T08:45:45.115Z,9.45
2023-11-30T08:48:33.004Z,9.13
2023-11-30T08:51:21.489Z,8.13
2023-11-30T08:54:08.118Z,7.03
2023-11-30T08:57:02.900Z,7.28
2023-11-30T08:59:50.544Z,6.47
2023-11-30T09:02:38.631Z,9.30
2023-11-30T09:05:24.974Z,11.15
2023-11-30T09:08:11.846Z,10.85
2023-11-30T09:10:58.110Z,12.10
2023-11-30T09:13:45.789Z,17.27
2023-11-30T09:16:33.201Z,18.65
2023-11-30T09:19:19.482Z,19.77
2023-11-30T09:22:05.246Z,23.00
2023-11-30T09:24:51.319Z,25.27
2023-11-30T09:27:39.329Z,24.25
2023-11-30T09:30:25.139Z,22.70
2023-11-30T09:33:11.268Z,27.90
2023-11-30T09:36:03.287Z,27.42
2023-11-30T09:38:48.937Z,27.42
2023-11-30T09:41:36.135Z,30.50
2023-11-30T09:44:21.949Z,23.75
2023-11-30T09:47:07.686Z,24.92
2023-11-30T09:49:52.999Z,25.10
2023-11-30T09:52:38.873Z,24.15
2023-11-30T09:55:26.639Z,28.15
2023-11-30T09:58:12.374Z,23.80
2023-11-30T10:01:02.345Z,22.52
2023-11-30T10:03:48.089Z,28.08
2023-11-30T10:06:33.801Z,26.83
2023-11-30T10:09:19.352Z,25.05
2023-11-30T10:12:05.790Z,28.33
2023-11-30T10:15:00.731Z,24.67
2023-11-30T10:17:47.726Z,25.27
2023-11-30T10:20:36.809Z,23.27
2023-11-30T10:23:23.283Z,30.90
2023-11-30T10:26:11.556Z,26.88
2023-11-30T10:28:58.925Z,33.08
2023-11-30T10:31:44.951Z,30.05
2023-11-30T10:34:35.954Z,25.85
2023-11-30T10:37:25.676Z,29.08
2023-11-30T10:40:13.707Z,30.85
2023-11-30T10:43:04.755Z,29.23
2023-11-30T10:45:57.380Z,32.33
2023-11-30T10:48:43.366Z,33.58
2023-11-30T10:51:29.204Z,33.65
2023-11-30T10:54:27.494Z,32.63
2023-11-30T10:57:14.321Z,29.02
2023-11-30T11:00:00.406Z,27.00
2023-11-30T11:02:51.398Z,26.58
2023-11-30T11:05:45.338Z,30.20
2023-11-30T11:08:32.347Z,24.40
2023-11-30T11:11:23.167Z,24.98
2023-11-30T11:14:08.869Z,21.77
2023-11-30T11:17:06.578Z,23.92
2023-11-30T11:19:54.485Z,22.15
2023-11-30T11:22:41.434Z,21.67
2023-11-30T11:25:27.448Z,25.33
2023-11-30T11:28:15.068Z,22.75
2023-11-30T11:31:00.580Z,21.92
2023-11-30T11:33:48.700Z,21.00
2023-11-30T11:36:39.074Z,25.10
2023-11-30T11:39:24.941Z,26.35
2023-11-30T11:42:10.520Z,24.38
2023-11-30T11:45:02.659Z,26.38
2023-11-30T11:47:48.343Z,29.58
2023-11-30T11:50:39.808Z,30.20
2023-11-30T11:53:27.339Z,27.60
2023-11-30T11:56:21.781Z,24.73
2023-11-30T11:59:07.260Z,22.60
2023-11-30T12:01:54.030Z,21.85
2023-11-30T12:04:40.992Z,20.25
2023-11-30T12:07:26.840Z,19.70
2023-11-30T12:10:13.955Z,21.27
2023-11-30T12:13:04.442Z,18.25
2023-11-30T12:15:50.713Z,17.45
2023-11-30T12:18:35.962Z,21.02
2023-11-30T12:21:23.551Z,20.83
2023-11-30T12:24:09.482Z,24.15
2023-11-30T12:26:54.952Z,22.85
2023-11-30T12:29:40.953Z,21.25
2023-11-30T12:32:30.551Z,23.25
2023-11-30T12:35:17.761Z,19.52
2023-11-30T12:38:08.753Z,20.30
2023-11-30T12:40:54.560Z,19.67
2023-11-30T12:43:40.144Z,18.33
2023-11-30T12:46:28.134Z,16.80
2023-11-30T12:49:13.614Z,18.98
2023-11-30T12:52:02.136Z,17.30
2023-11-30T12:54:53.533Z,16.70
2023-11-30T12:57:40.835Z,16.48
2023-11-30T13:00:26.777Z,18.08
2023-11-30T13:03:12.248Z,18.98
2023-11-30T13:05:57.454Z,21.25
2023-11-30T13:08:49.338Z,18.73
2023-11-30T13:11:37.418Z,13.27
2023-11-30T13:14:24.954Z,16.08
2023-11-30T13:17:10.756Z,15.95
2023-11-30T13:19:56.069Z,13.98
2023-11-30T13:22:45.800Z,12.52
2023-11-30T13:25:31.554Z,12.52
2023-11-30T13:28:16.876Z,12.80
2023-11-30T13:31:02.670Z,9.70
2023-11-30T13:33:50.920Z,10.50
2023-11-30T13:36:39.484Z,11.60
2023-11-30T13:39:25.046Z,11.00
2023-11-30T13:42:11.095Z,10.65
2023-11-30T13:44:56.780Z,9.68
2023-11-30T13:47:48.468Z,8.43
2023-11-30T13:50:42.074Z,9.50
2023-11-30T13:53:36.369Z,8.85
2023-11-30T13:56:22.907Z,8.95
2023-11-30T13:59:10.219Z,9.52
2023-11-30T14:01:57.161Z,9.20
2023-11-30T14:04:42.676Z,9.32
2023-11-30T14:07:31.177Z,8.23
2023-11-30T14:10:17.940Z,8.07
2023-11-30T14:13:05.586Z,10.52
2023-11-30T14:15:53.862Z,11.38
2023-11-30T14:18:39.606Z,10.02
2023-11-30T14:21:27.866Z,7.85
2023-11-30T14:24:15.636Z,8.20
2023-11-30T14:27:04.489Z,8.55
2023-11-30T14:29:50.240Z,9.20
2023-11-30T14:32:37.216Z,8.75
2023-11-30T14:35:24.104Z,8.13
2023-11-30T14:38:09.872Z,9.07
2023-11-30T14:40:59.089Z,13.68
2023-11-30T14:43:49.707Z,12.45
2023-11-30T14:46:37.346Z,14.15
2023-11-30T14:49:23.093Z,12.88
2023-11-30T14:52:08.710Z,12.77
2023-11-30T14:54:55.961Z,13.13
2023-11-30T14:57:44.947Z,12.15
2023-11-30T15:00:39.312Z,14.60
2023-11-30T15:03:26.232Z,15.48
2023-11-30T15:06:11.532Z,11.50
2023-11-30T15:09:20.601Z,11.70
2023-11-30T15:12:07.493Z,11.48
2023-11-30T15:14:53.182Z,14.00
2023-11-30T15:17:39.183Z,13.77
2023-11-30T15:20:26.410Z,11.90
2023-11-30T15:23:11.915Z,12.35
2023-11-30T15:25:59.064Z,14.65
2023-11-30T15:28:44.934Z,13.18
2023-11-30T15:31:36.087Z,13.05
2023-11-30T15:34:23.312Z,10.88
2023-11-30T15:37:10.884Z,12.63
2023-11-30T15:39:56.889Z,12.27
2023-11-30T15:42:43.686Z,14.30
2023-11-30T15:45:31.317Z,20.08
2023-11-30T15:48:18.471Z,16.60
2023-11-30T15:51:04.793Z,15.80
2023-11-30T15:53:50.216Z,16.67
2023-11-30T15:56:35.952Z,16.77
2023-11-30T15:59:26.137Z,18.90
2023-11-30T16:02:11.919Z,21.80
2023-11-30T16:04:57.504Z,21.75
2023-11-30T16:07:44.493Z,24.88
2023-11-30T16:10:30.420Z,26.02
2023-11-30T16:13:17.566Z,24.10
2023-11-30T16:16:05.767Z,33.92
2023-11-30T16:18:54.223Z,24.23
2023-11-30T16:21:39.859Z,28.65
2023-11-30T16:24:25.419Z,20.52
2023-11-30T16:27:15.545Z,18.58
2023-11-30T16:30:04.075Z,18.00
2023-11-30T16:32:49.947Z,15.75
2023-11-30T16:35:35.855Z,18.42
2023-11-30T16:38:21.543Z,20.30
2023-11-30T16:41:07.773Z,22.38
2023-11-30T16:43:54.797Z,19.35
2023-11-30T16:46:43.572Z,22.73
2023-11-30T16:49:29.135Z,18.42
2023-11-30T16:52:14.446Z,31.77
2023-11-30T16:55:00.595Z,19.40
2023-11-30T16:57:47.797Z,22.77
2023-11-30T17:00:59.101Z,23.85
2023-11-30T17:03:45.586Z,21.65
2023-11-30T17:06:30.894Z,20.23
2023-11-30T17:09:19.169Z,19.13
2023-11-30T17:12:16.053Z,26.00
2023-11-30T17:15:05.196Z,28.02
2023-11-30T17:17:51.075Z,19.45
2023-11-30T17:20:36.811Z,18.20
2023-11-30T17:23:26.115Z,41.75
2023-11-30T17:26:21.252Z,28.25
2023-11-30T17:29:07.165Z,23.08
2023-11-30T17:31:52.364Z,22.25
2023-11-30T17:34:39.473Z,30.63
2023-11-30T17:37:24.843Z,27.35
2023-11-30T17:40:12.095Z,15.93
2023-11-30T17:42:58.422Z,17.75
2023-11-30T17:45:44.133Z,13.38
2023-11-30T17:48:30.581Z,13.43
2023-11-30T17:51:19.666Z,17.25
2023-11-30T17:54:05.505Z,14.00
2023-11-30T17:56:50.880Z,20.90
2023-11-30T17:59:36.574Z,17.33
2023-11-30T18:02:31.871Z,21.10
2023-11-30T18:05:20.421Z,20.63
2023-11-30T18:08:08.289Z,21.17
2023-11-30T18:10:54.519Z,20.08
2023-11-30T18:13:39.952Z,19.40
2023-11-30T18:16:25.382Z,18.25
2023-11-30T18:19:12.948Z,20.08
2023-11-30T18:21:58.869Z,20.52
2023-11-30T18:24:44.749Z,20.90
2023-11-30T18:27:33.256Z,20.17
2023-11-30T18:30:20.527Z,25.55
2023-11-30T18:33:14.755Z,20.60
2023-11-30T18:36:02.557Z,19.95
2023-11-30T18:38:51.192Z,18.80
2023-11-30T18:41:40.216Z,27.83
2023-11-30T18:44:28.162Z,23.77
2023-11-30T18:47:15.749Z,19.73
2023-11-30T18:50:01.746Z,19.50
2023-11-30T18:52:48.933Z,18.80
2023-11-30T18:55:37.570Z,15.48
2023-11-30T18:58:22.975Z,15.05
2023-11-30T19:01:08.651Z,17.90
2023-11-30T19:03:54.574Z,16.35
2023-11-30T19:06:40.242Z,19.25
2023-11-30T19:09:26.364Z,15.80
2023-11-30T19:12:12.578Z,13.88
2023-11-30T19:14:58.633Z,18.23
2023-11-30T19:17:47.948Z,13.85
2023-11-30T19:20:33.689Z,13.27
2023-11-30T19:23:19.019Z,15.68
2023-11-30T19:26:05.307Z,19.42
2023-11-30T19:28:52.020Z,25.35
2023-11-30T19:31:40.632Z,24.05
2023-11-30T19:34:27.830Z,27.58
2023-11-30T19:37:23.386Z,26.38
2023-11-30T19:40:09.469Z,22.75
2023-11-30T19:42:55.036Z,22.95
2023-11-30T19:45:40.744Z,21.23
2023-11-30T19:48:27.346Z,28.08
2023-11-30T19:51:19.585Z,19.23
2023-11-30T19:54:06.465Z,22.38
2023-11-30T19:56:53.192Z,18.85
2023-11-30T19:59:48.315Z,17.33
2023-11-30T20:02:33.673Z,15.70
2023-11-30T20:05:19.698Z,20.95
2023-11-30T20:08:08.033Z,22.52
2023-11-30T20:10:54.130Z,25.52
2023-11-30T20:13:41.588Z,22.83
2023-11-30T20:16:28.278Z,18.88
2023-11-30T20:19:14.551Z,18.25
2023-11-30T20:22:00.045Z,16.95
2023-11-30T20:24:46.826Z,16.50
2023-11-30T20:27:32.342Z,17.52
2023-11-30T20:30:18.175Z,17.92
2023-11-30T20:33:03.788Z,19.90
2023-11-30T20:35:49.504Z,17.92
2023-11-30T20:38:43.316Z,20.60
2023-11-30T20:41:28.658Z,13.90
2023-11-30T20:44:14.197Z,14.60
2023-11-30T20:47:01.275Z,14.88
2023-11-30T20:49:49.773Z,14.52
2023-11-30T20:52:36.797Z,16.00
2023-11-30T20:55:23.779Z,16.35
2023-11-30T20:58:10.020Z,14.10
2023-11-30T21:00:58.655Z,15.75
2023-11-30T21:03:46.986Z,17.70
2023-11-30T21:06:32.736Z,17.17
2023-11-30T21:09:18.165Z,15.10
2023-11-30T21:12:04.193Z,15.52
2023-11-30T21:14:49.572Z,13.63
2023-11-30T21:17:35.130Z,18.85
2023-11-30T21:20:20.826Z,19.40
2023-11-30T21:23:08.067Z,19.83
2023-11-30T21:25:56.130Z,17.25
2023-11-30T21:28:41.463Z,24.92
2023-11-30T21:31:27.122Z,26.73
2023-11-30T21:34:13.099Z,20.40
2023-11-30T21:36:59.004Z,20.27
2023-11-30T21:39:44.839Z,30.10
2023-11-30T21:42:30.655Z,32.40
2023-11-30T21:45:15.991Z,32.85
2023-11-30T21:48:01.958Z,27.35
2023-11-30T21:50:47.496Z,25.55
2023-11-30T21:53:35.926Z,29.33
2023-11-30T21:56:22.458Z,29.38
2023-11-30T21:59:11.056Z,30.00
2023-11-30T22:01:56.878Z,29.95
2023-11-30T22:04:42.406Z,32.92
2023-11-30T22:07:28.176Z,30.17
2023-11-30T22:10:14.111Z,30.58
2023-11-30T22:13:00.044Z,29.42
2023-11-30T22:15:45.824Z,29.95
2023-11-30T22:18:32.856Z,32.42
2023-11-30T22:21:22.653Z,30.63
2023-11-30T22:24:08.740Z,28.45
2023-11-30T22:26:57.431Z,28.55
2023-11-30T22:29:43.574Z,25.05
2023-11-30T22:32:29.053Z,21.25
2023-11-30T22:35:14.753Z,22.05
2023-11-30T22:38:00.904Z,23.67
2023-11-30T22:40:46.631Z,24.70
2023-11-30T22:43:32.413Z,24.33
2023-11-30T22:46:19.551Z,24.75
2023-11-30T22:49:05.630Z,25.55
2023-11-30T22:51:51.035Z,29.02
2023-11-30T22:54:36.922Z,26.45
2023-11-30T22:57:23.354Z,28.20
2023-11-30T23:00:17.168Z,25.02
2023-11-30T23:03:02.977Z,27.80
2023-11-30T23:05:48.888Z,25.02
2023-11-30T23:08:34.306Z,23.40
2023-11-30T23:11:21.070Z,20.63
2023-11-30T23:14:08.495Z,21.35
2023-11-30T23:16:53.891Z,19.10
2023-11-30T23:19:43.433Z,16.40
2023-11-30T23:22:29.170Z,18.10
2023-11-30T23:25:15.445Z,19.95
2023-11-30T23:28:00.929Z,16.65
2023-11-30T23:30:51.340Z,16.65
2023-11-30T23:33:36.892Z,17.63
2023-11-30T23:36:22.476Z,17.25
2023-11-30T23:39:08.006Z,18.35
2023-11-30T23:41:54.996Z,17.30
2023-11-30T23:44:40.447Z,18.05
2023-11-30T23:47:26.379Z,22.40
2023-11-30T23:50:13.839Z,22.77
2023-11-30T23:52:59.499Z,23.50
2023-11-30T23:55:46.484Z,20.67
2023-11-30T23:58:31.761Z,21.73
